Providence, Pennsylvania
Current Conditions -  °F | °C
As of 12:53 PM on Thursday 29 Jan 2015 (Local Time) from KLNS Reporting Station
Broken Clouds Broken Clouds  
Wind Chill: 28°   Ceiling: 11000
Heat Index: 28°   Visibility: 7mi
Dew Point: 14°   Wind: 0mph
Humidity: 56%   Direction: NA
Pressure: 30.18"   Gusts: NA
Location:  39.9111°N, 76.2285°W
Report Text: KLNS 291753Z 00000KT 7SM BKN110 M02/M10 A3018 RMK AO2 SLP224 T10221100 11022 21139 58035
Loading
Personal Weather Stations






























Interactive Weather Map New forecast layout! Learn more

10-Day Weather Forecast

Advertisements
Track Severe Weather on mobile